Time;durP1;ratioP1;P1;durP2;ratioP2;P2;SDS_P1;SDS_P2;PMS_P1;PMS_P2;Temp;Humidity;BMP_temperature;BMP_pressure;BME280_temperature;BME280_humidity;BME280_pressure;Samples;Min_cycle;Max_cycle;Signal;HPM_P1;HPM_P2
2022/03/05 00:00:31;;;;;;;8.60;3.47;;;;;;;-0.47;100.00;101978.88;7394385;19;20190;-47
2022/03/05 00:03:04;;;;;;;7.78;3.38;;;;;;;-0.63;100.00;101980.53;7395356;19;20135;-48
2022/03/05 00:05:33;;;;;;;9.50;3.60;;;;;;;-0.56;100.00;101983.00;7391153;19;20198;-47
2022/03/05 00:08:03;;;;;;;12.55;4.00;;;;;;;-0.49;100.00;101974.38;7395499;19;20190;-46
2022/03/05 00:10:35;;;;;;;7.63;3.00;;;;;;;-0.47;100.00;101983.09;7389810;19;20274;-47
2022/03/05 00:13:06;;;;;;;7.05;3.00;;;;;;;-0.46;100.00;101980.69;7395896;19;20554;-49
2022/03/05 00:15:35;;;;;;;7.00;3.25;;;;;;;-0.47;100.00;101972.94;7391317;19;20201;-50
2022/03/05 00:18:07;;;;;;;9.02;3.67;;;;;;;-0.48;100.00;101972.03;7395021;19;20163;-47
2022/03/05 00:20:37;;;;;;;5.18;2.90;;;;;;;-0.57;100.00;101971.03;7392896;19;20190;-48
2022/03/05 00:23:06;;;;;;;6.50;3.75;;;;;;;-0.45;100.00;101977.41;7395640;19;20666;-47
2022/03/05 00:25:36;;;;;;;8.30;3.50;;;;;;;-0.39;100.00;101973.72;7391099;19;20190;-47
2022/03/05 00:28:06;;;;;;;10.68;3.83;;;;;;;-0.51;100.00;101981.81;7395077;19;20133;-50
2022/03/05 00:30:36;;;;;;;9.57;3.50;;;;;;;-0.60;100.00;101980.88;7391970;19;20190;-48
2022/03/05 00:33:08;;;;;;;9.65;3.55;;;;;;;-0.37;100.00;101978.22;7398680;19;20130;-50
2022/03/05 00:35:38;;;;;;;10.63;3.40;;;;;;;-0.53;100.00;101978.25;7390986;19;20211;-47
2022/03/05 00:38:07;;;;;;;6.93;3.70;;;;;;;-0.61;100.00;101979.06;7394114;19;20138;-49
2022/03/05 00:40:38;;;;;;;7.25;3.75;;;;;;;-0.63;100.00;101981.44;7390586;19;20200;-48
2022/03/05 00:43:08;;;;;;;8.80;4.43;;;;;;;-0.75;100.00;101986.09;7395298;19;20491;-52
2022/03/05 00:45:38;;;;;;;10.82;3.00;;;;;;;-0.82;100.00;101978.59;7390567;19;20194;-48
2022/03/05 00:48:10;;;;;;;9.10;3.88;;;;;;;-0.80;100.00;101978.72;7394582;19;20148;-49
2022/03/05 00:50:40;;;;;;;9.25;3.25;;;;;;;-0.84;100.00;101980.03;7394225;19;20194;-48
2022/03/05 00:53:11;;;;;;;6.80;3.40;;;;;;;-0.65;100.00;101974.41;7394562;19;20127;-47
2022/03/05 00:55:40;;;;;;;10.50;3.60;;;;;;;-0.87;100.00;101972.13;7390494;19;20196;-48
2022/03/05 00:58:10;;;;;;;9.00;3.42;;;;;;;-0.93;100.00;101968.91;7394276;19;20590;-49
2022/03/05 01:00:39;;;;;;;5.88;3.20;;;;;;;-0.91;100.00;101972.50;7390635;19;20198;-47
2022/03/05 01:03:11;;;;;;;6.15;2.90;;;;;;;-1.06;100.00;101964.16;7394326;19;20123;-47
2022/03/05 01:05:42;;;;;;;8.13;4.00;;;;;;;-0.89;100.00;101968.50;7390519;19;20198;-50
2022/03/05 01:08:12;;;;;;;9.55;4.25;;;;;;;-0.69;100.00;101963.94;7394192;19;20131;-48
2022/03/05 01:10:41;;;;;;;7.65;3.35;;;;;;;-0.84;100.00;101968.28;7393152;19;20785;-51
2022/03/05 01:13:10;;;;;;;7.90;3.13;;;;;;;-0.69;100.00;101971.56;7393900;19;20138;-48
2022/03/05 01:15:40;;;;;;;9.23;3.80;;;;;;;-0.71;100.00;101967.94;7390232;19;20200;-47
2022/03/05 01:18:12;;;;;;;8.13;3.03;;;;;;;-0.72;100.00;101966.13;7393526;19;20489;-48
2022/03/05 01:20:42;;;;;;;8.57;3.10;;;;;;;-0.45;100.00;101971.44;7394700;19;20194;-48
2022/03/05 01:23:11;;;;;;;5.97;2.92;;;;;;;-0.61;100.00;101974.00;7393778;19;20123;-46
2022/03/05 01:25:41;;;;;;;5.85;2.70;;;;;;;-0.75;100.00;101973.44;7386934;19;20198;-48
2022/03/05 01:28:10;;;;;;;7.68;2.97;;;;;;;-0.86;100.00;101976.44;7392537;19;20123;-48
2022/03/05 01:30:40;;;;;;;7.78;2.75;;;;;;;-1.02;100.00;101969.72;7388592;19;20190;-47
2022/03/05 01:33:15;;;;;;;6.70;2.80;;;;;;;-0.87;100.00;101969.59;7393543;19;20186;-49
2022/03/05 01:35:45;;;;;;;5.95;3.03;;;;;;;-0.65;100.00;101971.84;7389548;19;20190;-49
2022/03/05 01:38:15;;;;;;;7.78;3.03;;;;;;;-0.74;100.00;101975.22;7394941;19;20202;-50
2022/03/05 01:40:45;;;;;;;11.07;3.75;;;;;;;-0.88;100.00;101975.41;7390738;19;20712;-49
2022/03/05 01:43:14;;;;;;;6.30;2.70;;;;;;;-1.08;100.00;101971.56;7393197;19;20133;-48
2022/03/05 01:45:44;;;;;;;5.88;2.42;;;;;;;-1.30;100.00;101976.84;7385993;19;20198;-51
2022/03/05 01:48:16;;;;;;;14.57;3.25;;;;;;;-1.14;100.00;101973.44;7392851;19;20134;-47
2022/03/05 01:50:47;;;;;;;7.95;3.10;;;;;;;-1.20;100.00;101973.69;7389622;19;20192;-47
2022/03/05 01:53:17;;;;;;;10.32;3.13;;;;;;;-1.30;100.00;101976.84;7392798;19;20202;-51
2022/03/05 01:55:46;;;;;;;5.75;2.20;;;;;;;-1.37;100.00;101979.47;7388373;19;20194;-52
2022/03/05 01:58:16;;;;;;;7.65;2.67;;;;;;;-1.40;100.00;101968.97;7396897;19;20594;-47
2022/03/05 02:00:45;;;;;;;7.78;2.30;;;;;;;-1.13;100.00;101975.28;7390098;19;20182;-47
2022/03/05 02:03:17;;;;;;;6.95;3.05;;;;;;;-1.18;100.00;101981.47;7392320;19;20130;-51
2022/03/05 02:05:47;;;;;;;5.15;2.53;;;;;;;-1.41;100.00;101977.31;7389673;19;20193;-47
2022/03/05 02:08:17;;;;;;;7.07;2.75;;;;;;;-1.30;100.00;101971.78;7392252;19;20474;-47
2022/03/05 02:10:47;;;;;;;7.72;3.15;;;;;;;-1.36;100.00;101971.13;7392418;19;20186;-48
2022/03/05 02:13:16;;;;;;;10.55;2.80;;;;;;;-1.27;100.00;101967.03;7392300;19;20483;-47
2022/03/05 02:15:46;;;;;;;6.05;2.65;;;;;;;-1.04;100.00;101966.13;7385706;19;20204;-50
2022/03/05 02:18:18;;;;;;;9.77;3.85;;;;;;;-1.02;100.00;101964.63;7392099;19;20119;-49
2022/03/05 02:20:50;;;;;;;9.07;2.58;;;;;;;-1.16;100.00;101962.25;7391800;19;20267;-47
2022/03/05 02:23:20;;;;;;;4.30;2.45;;;;;;;-1.10;100.00;101956.25;7392181;19;20134;-52
2022/03/05 02:25:54;;;;;;;9.07;4.25;;;;;;;-0.96;100.00;101962.75;7388842;19;20206;-47
2022/03/05 02:28:26;;;;;;;10.32;3.10;;;;;;;-1.32;100.00;101960.59;7391856;19;20123;-47
2022/03/05 02:30:56;;;;;;;9.65;2.80;;;;;;;-1.26;100.00;101965.44;7388697;19;20187;-47
2022/03/05 02:33:26;;;;;;;8.50;2.75;;;;;;;-1.34;100.00;101963.72;7392407;19;20133;-49
2022/03/05 02:35:58;;;;;;;7.53;3.40;;;;;;;-1.20;100.00;101962.66;7389049;19;20664;-47
2022/03/05 02:38:28;;;;;;;7.38;3.63;;;;;;;-1.23;100.00;101959.06;7391165;19;20127;-46
2022/03/05 02:40:57;;;;;;;5.75;3.15;;;;;;;-1.40;100.00;101959.75;7389077;19;20657;-47
2022/03/05 02:43:27;;;;;;;8.13;2.95;;;;;;;-1.40;100.00;101961.38;7393916;19;20617;-48
2022/03/05 02:45:57;;;;;;;3.97;2.20;;;;;;;-1.28;100.00;101955.13;7396317;19;20193;-49
2022/03/05 02:48:26;;;;;;;8.55;2.75;;;;;;;-1.50;100.00;101960.38;7401922;19;20218;-49
2022/03/05 02:50:59;;;;;;;8.02;3.40;;;;;;;-1.59;100.00;101955.94;7396203;19;20194;-50
2022/03/05 02:53:29;;;;;;;5.43;2.65;;;;;;;-1.65;100.00;101957.06;7398819;19;20127;-49
2022/03/05 02:55:59;;;;;;;12.77;2.83;;;;;;;-1.58;100.00;101962.81;7386235;19;20194;-49
2022/03/05 02:58:28;;;;;;;7.63;2.97;;;;;;;-1.54;100.00;101963.31;7398549;19;20123;-51
2022/03/05 03:00:57;;;;;;;8.50;2.47;;;;;;;-1.61;100.00;101957.38;7395167;19;20212;-49
2022/03/05 03:03:27;;;;;;;6.38;2.67;;;;;;;-1.50;100.00;101968.00;7398304;19;20134;-49
2022/03/05 03:06:00;;;;;;;6.68;2.50;;;;;;;-1.59;100.00;101966.97;7395968;19;20204;-50
2022/03/05 03:08:29;;;;;;;10.20;2.75;;;;;;;-1.61;100.00;101960.84;7398296;19;20135;-48
2022/03/05 03:10:58;;;;;;;6.45;3.50;;;;;;;-1.64;100.00;101969.00;7395392;19;20194;-48
2022/03/05 03:13:28;;;;;;;9.45;3.13;;;;;;;-1.33;100.00;101956.28;7397873;19;20783;-49
2022/03/05 03:15:57;;;;;;;10.60;3.40;;;;;;;-1.50;100.00;101956.94;7393735;19;20201;-49
2022/03/05 03:18:27;;;;;;;7.55;3.03;;;;;;;-1.56;100.00;101961.34;7401784;19;20146;-47
2022/03/05 03:20:56;;;;;;;8.13;2.80;;;;;;;-1.77;100.00;101965.84;7395076;19;20193;-50
2022/03/05 03:23:28;;;;;;;10.60;3.05;;;;;;;-1.72;100.00;101961.28;7397696;19;20119;-49
2022/03/05 03:25:58;;;;;;;10.27;2.85;;;;;;;-1.52;100.00;101959.34;7393863;19;20656;-47
2022/03/05 03:28:27;;;;;;;9.02;3.60;;;;;;;-1.44;100.00;101957.63;7397407;19;20149;-47
2022/03/05 03:30:57;;;;;;;5.32;3.00;;;;;;;-1.57;100.00;101965.53;7394784;19;20193;-48
2022/03/05 03:33:26;;;;;;;8.32;3.20;;;;;;;-1.56;100.00;101968.94;7397414;19;20127;-51
2022/03/05 03:35:56;;;;;;;7.85;2.80;;;;;;;-1.65;100.00;101966.28;7393490;19;20194;-47
2022/03/05 03:38:25;;;;;;;5.15;2.55;;;;;;;-1.54;100.00;101963.31;7400708;19;20139;-49
2022/03/05 03:40:57;;;;;;;34.28;14.20;;;;;;;-1.14;100.00;101958.25;7394656;19;20194;-47
2022/03/05 03:43:27;;;;;;;19.38;9.27;;;;;;;-1.26;100.00;101967.97;7397150;19;20227;-47
2022/03/05 03:45:56;;;;;;;67.40;29.00;;;;;;;-1.30;100.00;101961.66;7394178;19;20645;-47
2022/03/05 03:48:26;;;;;;;29.50;11.15;;;;;;;-1.52;100.00;101972.00;7396815;19;20194;-53
2022/03/05 03:50:55;;;;;;;22.05;8.30;;;;;;;-1.61;100.00;101968.44;7392273;19;20985;-47
2022/03/05 03:53:24;;;;;;;19.63;9.23;;;;;;;-1.71;100.00;101965.59;7396293;19;20123;-49
2022/03/05 03:55:54;;;;;;;13.77;3.80;;;;;;;-1.71;100.00;101966.53;7394108;19;20186;-50
2022/03/05 03:58:26;;;;;;;7.70;3.53;;;;;;;-1.62;100.00;101956.50;7397025;19;20127;-47
2022/03/05 04:00:55;;;;;;;10.43;3.90;;;;;;;-1.77;100.00;101965.84;7393163;19;20653;-50
2022/03/05 04:03:25;;;;;;;9.68;4.05;;;;;;;-1.78;100.00;101964.91;7397140;19;20123;-47
2022/03/05 04:05:55;;;;;;;11.80;4.05;;;;;;;-1.73;100.00;101957.88;7392256;19;20510;-49
2022/03/05 04:11:07;;;;;;;6.35;3.42;;;;;;;-1.75;100.00;101963.50;7393671;19;20194;-49
2022/03/05 04:13:39;;;;;;;8.68;3.03;;;;;;;-1.86;100.00;101965.72;7395779;19;20269;-47
2022/03/05 04:16:09;;;;;;;8.85;2.90;;;;;;;-1.95;100.00;101967.25;7392963;19;20186;-48
2022/03/05 04:18:38;;;;;;;6.63;3.03;;;;;;;-1.96;100.00;101966.31;7396091;19;20133;-48
2022/03/05 04:21:09;;;;;;;6.05;2.92;;;;;;;-1.81;100.00;101967.13;7391547;19;20507;-52
2022/03/05 04:23:38;;;;;;;7.18;3.13;;;;;;;-1.77;100.00;101961.69;7395807;19;20130;-47
2022/03/05 04:26:07;;;;;;;5.70;3.00;;;;;;;-1.89;100.00;101967.91;7392263;19;20775;-50
2022/03/05 04:28:39;;;;;;;5.10;2.78;;;;;;;-1.87;100.00;101968.97;7395468;19;20123;-50
2022/03/05 04:31:09;;;;;;;8.27;3.15;;;;;;;-1.74;100.00;101965.28;7392777;19;20194;-49
2022/03/05 04:33:39;;;;;;;8.32;3.40;;;;;;;-1.84;100.00;101964.25;7399290;19;20123;-47
2022/03/05 04:36:09;;;;;;;14.63;4.35;;;;;;;-1.88;100.00;101961.22;7392439;19;20197;-49
2022/03/05 04:38:38;;;;;;;5.35;2.70;;;;;;;-2.05;100.00;101968.72;7393284;19;20186;-47
2022/03/05 04:41:08;;;;;;;9.52;3.15;;;;;;;-1.67;100.00;101960.16;7392486;19;20186;-51
2022/03/05 04:43:40;;;;;;;6.88;3.25;;;;;;;-1.72;100.00;101963.81;7396412;19;20131;-47
2022/03/05 04:46:11;;;;;;;7.18;3.35;;;;;;;-1.70;100.00;101965.78;7392299;19;20196;-47
2022/03/05 04:48:41;;;;;;;7.57;3.40;;;;;;;-1.89;100.00;101967.91;7395395;19;20128;-47
2022/03/05 04:51:10;;;;;;;13.80;3.60;;;;;;;-1.79;100.00;101967.31;7391736;19;20514;-48
2022/03/05 04:53:40;;;;;;;9.23;3.65;;;;;;;-1.88;100.00;101967.19;7394628;19;20131;-48
2022/03/05 04:56:09;;;;;;;18.40;6.32;;;;;;;-1.78;100.00;101969.09;7392035;19;20186;-48
2022/03/05 04:58:41;;;;;;;12.98;3.38;;;;;;;-1.75;100.00;101978.66;7392801;19;20472;-50
2022/03/05 05:01:11;;;;;;;11.90;4.22;;;;;;;-1.98;100.00;101970.31;7389147;19;20190;-50
2022/03/05 05:03:41;;;;;;;9.50;4.10;;;;;;;-2.12;100.00;101966.25;7394622;19;20127;-49
2022/03/05 05:06:11;;;;;;;9.32;4.15;;;;;;;-1.87;100.00;101958.84;7388887;19;20198;-49
2022/03/05 05:08:41;;;;;;;7.53;3.92;;;;;;;-1.82;100.00;101965.34;7394350;19;20131;-47
2022/03/05 05:11:11;;;;;;;13.05;5.03;;;;;;;-1.87;100.00;101961.38;7390474;19;20246;-50
2022/03/05 05:13:43;;;;;;;9.63;4.05;;;;;;;-1.85;100.00;101962.44;7394249;19;20123;-50
2022/03/05 05:16:12;;;;;;;10.32;4.30;;;;;;;-1.91;100.00;101967.75;7391194;19;20185;-51
2022/03/05 05:19:24;;;;;;;12.10;4.95;;;;;;;-1.83;100.00;101966.06;7392417;19;20131;-47
2022/03/05 05:21:31;;;;;;;9.38;4.18;;;;;;;-1.92;100.00;101965.94;7386344;19;20196;-52
2022/03/05 05:24:01;;;;;;;10.20;4.57;;;;;;;-1.90;100.00;101971.16;7393495;19;20172;-47
2022/03/05 05:26:30;;;;;;;9.55;3.40;;;;;;;-1.96;100.00;101978.06;7391671;19;20201;-48
2022/03/05 05:29:02;;;;;;;13.02;3.58;;;;;;;-2.07;100.00;101979.38;7393358;19;20127;-46
2022/03/05 05:31:32;;;;;;;11.20;4.35;;;;;;;-1.97;100.00;101983.84;7389547;19;20201;-50
2022/03/05 05:34:01;;;;;;;9.55;3.65;;;;;;;-1.90;100.00;101974.59;7393371;19;20234;-47
2022/03/05 05:36:31;;;;;;;7.10;3.90;;;;;;;-2.18;100.00;101978.19;7392389;19;20194;-48
2022/03/05 05:39:00;;;;;;;10.55;3.50;;;;;;;-2.10;100.00;101977.41;7391707;19;20119;-49
2022/03/05 05:41:30;;;;;;;9.35;4.30;;;;;;;-1.99;100.00;101982.78;7389444;19;20542;-49
2022/03/05 05:43:59;;;;;;;13.00;3.30;;;;;;;-2.01;100.00;101976.66;7393223;19;20170;-48
2022/03/05 05:46:32;;;;;;;12.55;4.55;;;;;;;-2.07;100.00;101982.84;7388004;19;20186;-47
2022/03/05 05:49:01;;;;;;;9.52;3.45;;;;;;;-1.99;100.00;101982.78;7392967;19;20127;-47
2022/03/05 05:51:32;;;;;;;12.23;3.97;;;;;;;-1.85;100.00;101987.75;7388883;19;20194;-49
2022/03/05 05:54:02;;;;;;;10.77;3.30;;;;;;;-1.85;100.00;101987.75;7392962;19;20166;-50
2022/03/05 05:56:32;;;;;;;11.48;3.80;;;;;;;-1.77;100.00;101986.09;7391520;19;20197;-47
2022/03/05 05:59:01;;;;;;;8.13;3.17;;;;;;;-1.59;100.00;101992.28;7391117;19;20199;-48
2022/03/05 06:01:33;;;;;;;8.77;3.38;;;;;;;-1.58;100.00;101989.03;7390219;19;20514;-47
2022/03/05 06:04:03;;;;;;;6.47;3.22;;;;;;;-1.57;100.00;101998.44;7394506;19;20179;-50
2022/03/05 06:06:33;;;;;;;7.63;3.13;;;;;;;-1.57;100.00;102006.03;7390347;19;20197;-48
2022/03/05 06:09:02;;;;;;;12.55;3.17;;;;;;;-1.96;100.00;102010.94;7392441;19;20202;-47
2022/03/05 06:11:32;;;;;;;8.70;4.10;;;;;;;-1.83;100.00;102009.09;7390603;19;20649;-49
2022/03/05 06:14:02;;;;;;;9.07;4.70;;;;;;;-1.69;100.00;102010.59;7392103;19;20165;-47
2022/03/05 06:16:34;;;;;;;4.85;2.92;;;;;;;-1.96;100.00;102018.53;7389785;19;20194;-50
2022/03/05 06:19:03;;;;;;;7.85;3.65;;;;;;;-2.12;100.00;102021.88;7397672;19;20126;-53
2022/03/05 06:21:33;;;;;;;18.27;4.82;;;;;;;-2.18;100.00;102016.13;7396995;19;20200;-51
2022/03/05 06:24:03;;;;;;;9.57;3.97;;;;;;;-1.95;100.00;102016.19;7399238;19;20221;-48
2022/03/05 06:26:32;;;;;;;10.68;4.10;;;;;;;-2.01;100.00;102019.69;7395800;19;20201;-48
2022/03/05 06:29:02;;;;;;;8.27;4.00;;;;;;;-1.88;100.00;102020.31;7399533;19;20123;-50
2022/03/05 06:31:34;;;;;;;9.80;4.10;;;;;;;-2.05;100.00;102023.50;7396741;19;20548;-48
2022/03/05 06:34:03;;;;;;;9.70;3.53;;;;;;;-2.25;100.00;102022.09;7399485;19;20162;-51
2022/03/05 06:36:33;;;;;;;8.13;3.38;;;;;;;-2.32;100.00;102014.56;7398165;19;20187;-48
2022/03/05 06:39:02;;;;;;;8.55;3.80;;;;;;;-2.42;100.00;102009.19;7396320;19;20130;-49
2022/03/05 06:41:32;;;;;;;9.43;4.35;;;;;;;-2.24;100.00;102015.44;7396767;19;20196;-50
2022/03/05 06:44:01;;;;;;;9.43;4.07;;;;;;;-2.39;100.00;102009.53;7398143;19;20159;-49
2022/03/05 06:46:34;;;;;;;6.25;3.50;;;;;;;-2.40;100.00;102013.69;7396589;19;20216;-46
2022/03/05 06:49:03;;;;;;;14.05;3.42;;;;;;;-2.33;100.00;102016.19;7399013;19;20135;-51
2022/03/05 06:51:32;;;;;;;9.27;3.95;;;;;;;-1.92;100.00;102010.56;7392177;19;20196;-49
2022/03/05 06:54:02;;;;;;;9.07;4.28;;;;;;;-1.96;100.00;102013.47;7398033;19;20493;-49
2022/03/05 06:56:32;;;;;;;7.97;3.75;;;;;;;-2.13;100.00;102012.50;7394458;19;20190;-46
2022/03/05 06:59:02;;;;;;;6.97;3.42;;;;;;;-1.88;100.00;102014.34;7396850;19;20144;-47
2022/03/05 07:01:38;;;;;;;10.85;4.10;;;;;;;-1.30;100.00;102008.88;7395675;19;20212;-47
2022/03/05 07:04:08;;;;;;;14.35;4.15;;;;;;;-1.70;100.00;102013.00;7397496;19;20543;-52
2022/03/05 07:06:38;;;;;;;8.20;4.03;;;;;;;-1.21;100.00;102007.38;7393737;19;20993;-50
2022/03/05 07:09:08;;;;;;;13.00;4.75;;;;;;;-1.08;100.00;102009.56;7398357;19;20135;-47
2022/03/05 07:11:37;;;;;;;9.65;4.22;;;;;;;-1.28;100.00;102015.03;7395570;19;20526;-50
2022/03/05 07:14:07;;;;;;;9.20;4.10;;;;;;;-1.12;100.00;102008.34;7397557;19;20169;-47
2022/03/05 07:16:39;;;;;;;10.80;5.10;;;;;;;-0.98;100.00;102009.84;7393181;19;20201;-47
2022/03/05 07:19:09;;;;;;;14.02;4.70;;;;;;;-1.15;100.00;102015.63;7400008;19;20468;-47
2022/03/05 07:21:42;;;;;;;8.73;4.32;;;;;;;-1.13;100.00;102020.88;7396812;19;20214;-52
2022/03/05 07:24:12;;;;;;;13.32;4.65;;;;;;;-0.92;100.00;102006.19;7396598;19;20158;-51
2022/03/05 07:26:42;;;;;;;10.13;4.40;;;;;;;-1.05;100.00;102014.09;7395340;19;20187;-50
2022/03/05 07:29:11;;;;;;;9.10;4.57;;;;;;;-1.13;100.00;102018.34;7395639;19;20469;-50
2022/03/05 07:31:43;;;;;;;12.45;4.40;;;;;;;-1.12;100.00;102020.13;7396559;19;20190;-51
2022/03/05 07:34:13;;;;;;;8.77;4.15;;;;;;;-0.51;100.00;102019.84;7397077;19;20163;-50
2022/03/05 07:36:43;;;;;;;10.82;3.90;;;;;;;-0.30;100.00;102027.97;7394582;19;20197;-50
2022/03/05 07:39:13;;;;;;;26.40;10.63;;;;;;;0.15;100.00;102029.22;7395499;19;20162;-47
2022/03/05 07:41:42;;;;;;;53.72;20.95;;;;;;;0.18;100.00;102032.06;7396290;19;20190;-48
2022/03/05 07:44:12;;;;;;;67.15;27.98;;;;;;;0.54;100.00;102036.59;7398330;19;20166;-46
2022/03/05 07:46:44;;;;;;;87.28;37.10;;;;;;;1.35;100.00;102035.41;7391569;19;20197;-54
2022/03/05 07:49:14;;;;;;;30.92;13.77;;;;;;;1.19;100.00;102038.06;7396496;19;20147;-53
2022/03/05 07:51:44;;;;;;;33.95;14.52;;;;;;;0.93;100.00;102043.97;7393967;19;20200;-51
2022/03/05 07:54:14;;;;;;;32.73;10.83;;;;;;;1.11;100.00;102044.03;7395703;19;20178;-47
2022/03/05 07:56:45;;;;;;;21.83;7.30;;;;;;;1.03;100.00;102044.91;7395658;19;20978;-48
2022/03/05 07:59:14;;;;;;;10.00;4.20;;;;;;;0.79;100.00;102046.75;7395086;19;20374;-47
2022/03/05 08:01:47;;;;;;;8.50;3.33;;;;;;;0.23;100.00;102054.66;7392791;19;20279;-49
2022/03/05 08:04:16;;;;;;;8.25;3.15;;;;;;;0.10;100.00;102039.78;7395109;19;20435;-52
2022/03/05 08:06:46;;;;;;;8.90;3.90;;;;;;;0.23;100.00;102048.66;7393486;19;20193;-47
2022/03/05 08:09:16;;;;;;;7.43;3.53;;;;;;;0.10;100.00;102052.47;7395750;19;20339;-47
2022/03/05 08:11:45;;;;;;;7.70;3.53;;;;;;;-0.12;100.00;102048.44;7391571;19;20210;-46
2022/03/05 08:14:14;;;;;;;9.40;3.60;;;;;;;-0.31;100.00;102051.56;7395052;19;20163;-47
2022/03/05 08:16:47;;;;;;;7.97;3.50;;;;;;;-0.34;100.00;102051.22;7393141;19;20191;-49
2022/03/05 08:19:16;;;;;;;8.70;3.53;;;;;;;-0.37;100.00;102048.34;7394547;19;20136;-50
2022/03/05 08:21:45;;;;;;;9.20;3.92;;;;;;;-0.37;100.00;102048.34;7392791;19;20197;-50
2022/03/05 08:24:15;;;;;;;9.43;4.70;;;;;;;-0.24;100.00;102054.00;7394778;19;20155;-47
2022/03/05 08:26:45;;;;;;;12.10;5.13;;;;;;;-0.17;100.00;102053.00;7392160;19;20197;-49
2022/03/05 08:29:15;;;;;;;13.98;4.82;;;;;;;-0.10;100.00;102052.00;7394916;19;20128;-48
2022/03/05 08:31:47;;;;;;;9.55;4.57;;;;;;;-0.09;100.00;102053.81;7393290;19;20656;-48
2022/03/05 08:34:17;;;;;;;13.45;4.90;;;;;;;-0.02;100.00;102043.56;7394482;19;20653;-47
2022/03/05 08:36:47;;;;;;;11.82;4.95;;;;;;;0.09;100.00;102045.59;7392668;19;20187;-49
2022/03/05 08:39:16;;;;;;;9.07;4.28;;;;;;;0.31;100.00;102042.75;7397737;19;20135;-50
2022/03/05 08:41:46;;;;;;;8.38;5.00;;;;;;;0.48;100.00;102041.06;7389548;19;20194;-47
2022/03/05 08:44:15;;;;;;;9.05;5.05;;;;;;;0.64;100.00;102049.53;7394297;19;20886;-48
2022/03/05 08:46:47;;;;;;;13.23;5.80;;;;;;;0.67;100.00;102047.28;7391762;19;20197;-51
2022/03/05 08:49:17;;;;;;;12.68;5.80;;;;;;;0.83;100.00;102038.69;7394776;19;20131;-49
2022/03/05 08:51:46;;;;;;;11.73;5.72;;;;;;;0.82;100.00;102044.50;7391699;19;20200;-49
2022/03/05 08:54:17;;;;;;;11.07;5.90;;;;;;;0.87;100.00;102042.44;7394244;19;20171;-47
2022/03/05 08:56:47;;;;;;;15.38;5.97;;;;;;;0.89;100.00;102040.97;7391838;19;20217;-48
2022/03/05 08:59:16;;;;;;;13.77;6.13;;;;;;;0.90;100.00;102042.75;7394352;19;20134;-52
2022/03/05 09:01:48;;;;;;;13.63;5.50;;;;;;;0.87;100.00;102048.41;7391835;19;20190;-50
2022/03/05 09:04:18;;;;;;;13.48;6.00;;;;;;;0.99;100.00;102052.94;7393728;19;20163;-51
2022/03/05 09:06:48;;;;;;;14.63;6.15;;;;;;;1.17;100.00;102059.91;7390978;19;20205;-49
2022/03/05 09:09:17;;;;;;;11.33;6.23;;;;;;;1.24;100.00;102051.25;7393947;19;20131;-51
2022/03/05 09:11:47;;;;;;;13.02;6.40;;;;;;;1.41;100.00;102059.66;7387923;19;20411;-49
2022/03/05 09:14:16;;;;;;;14.77;6.40;;;;;;;1.64;100.00;102054.28;7393211;19;20159;-53
2022/03/05 09:16:49;;;;;;;16.20;7.30;;;;;;;1.80;100.00;102056.69;7390863;19;20414;-48
2022/03/05 09:19:18;;;;;;;12.23;5.80;;;;;;;1.74;100.00;102057.00;7394216;19;20403;-47
2022/03/05 09:21:48;;;;;;;14.18;6.72;;;;;;;1.91;100.00;102055.22;7390569;19;20395;-49
2022/03/05 09:24:17;;;;;;;12.87;6.00;;;;;;;2.14;100.00;102054.00;7392833;19;20530;-47
2022/03/05 09:26:47;;;;;;;13.17;6.20;;;;;;;2.18;100.00;102056.09;7390238;19;20803;-47
2022/03/05 09:29:17;;;;;;;10.70;5.67;;;;;;;2.19;100.00;102057.03;7393411;19;20395;-47
2022/03/05 09:31:49;;;;;;;15.93;6.53;;;;;;;2.20;100.00;102059.69;7387249;19;20934;-49
2022/03/05 09:34:18;;;;;;;15.20;6.70;;;;;;;2.23;100.00;102049.81;7392522;19;20433;-49
2022/03/05 09:36:48;;;;;;;14.00;7.00;;;;;;;2.28;100.00;102048.63;7386854;19;20451;-48
2022/03/05 09:39:18;;;;;;;18.17;7.33;;;;;;;3.38;100.00;102042.63;7394084;19;20400;-47
2022/03/05 09:41:47;;;;;;;52.43;22.97;;;;;;;3.46;100.00;102050.06;7387971;19;20394;-47
2022/03/05 09:44:17;;;;;;;13.13;6.57;;;;;;;3.69;100.00;102052.16;7390107;19;20423;-48
2022/03/05 09:46:50;;;;;;;25.43;12.07;;;;;;;4.18;100.00;102059.88;7387646;19;20419;-50
2022/03/05 09:49:19;;;;;;;38.73;18.47;;;;;;;4.23;100.00;102062.81;7389931;19;20396;-49
2022/03/05 09:51:49;;;;;;;11.43;6.03;;;;;;;3.72;100.00;102064.31;7386779;19;20419;-47
2022/03/05 09:54:18;;;;;;;15.20;6.20;;;;;;;3.55;100.00;102062.78;7392032;19;20776;-50
2022/03/05 09:56:49;;;;;;;13.50;6.03;;;;;;;3.47;100.00;102062.97;7387331;19;20412;-50
2022/03/05 09:59:19;;;;;;;11.77;6.60;;;;;;;3.57;100.00;102062.16;7394790;19;20407;-49
2022/03/05 10:01:53;;;;;;;16.23;6.33;;;;;;;3.42;100.00;102063.28;7387208;19;21057;-48
2022/03/05 10:04:24;;;;;;;11.53;5.83;;;;;;;3.36;100.00;102067.09;7389838;19;20774;-48
2022/03/05 10:07:12;;;;;;;12.90;5.90;;;;;;;3.34;100.00;102060.94;7387719;19;20418;-51
2022/03/05 10:09:43;;;;;;;11.70;6.53;;;;;;;3.16;100.00;102062.69;7390968;19;20746;-47
2022/03/05 10:12:29;;;;;;;10.40;5.60;;;;;;;3.29;100.00;102058.72;7387622;19;20419;-49
2022/03/05 10:15:09;;;;;;;11.57;5.77;;;;;;;3.47;100.00;102059.50;7389853;19;20418;-49
2022/03/05 10:17:54;;;;;;;19.53;6.20;;;;;;;3.44;100.00;102054.16;7390869;19;20470;-48
2022/03/05 10:20:25;;;;;;;9.37;4.77;;;;;;;3.28;100.00;102052.72;7386095;19;20402;-51
2022/03/05 10:23:02;;;;;;;14.30;5.10;;;;;;;2.95;100.00;102062.50;7391070;19;20451;-47
2022/03/05 10:25:37;;;;;;;15.00;6.30;;;;;;;2.93;100.00;102061.44;7385925;19;20403;-49
2022/03/05 10:28:12;;;;;;;18.67;6.17;;;;;;;2.91;100.00;102059.50;7390906;19;20735;-50
2022/03/05 10:30:43;;;;;;;10.27;5.10;;;;;;;2.87;100.00;102063.41;7387578;19;20386;-48
2022/03/05 10:33:28;;;;;;;7.90;4.70;;;;;;;2.98;100.00;102061.91;7392039;19;20459;-48
2022/03/05 10:35:59;;;;;;;12.60;6.10;;;;;;;3.15;100.00;102055.81;7386729;19;20800;-50
2022/03/05 10:38:47;;;;;;;14.43;5.93;;;;;;;3.41;100.00;102064.06;7390849;19;20394;-52
2022/03/05 10:41:17;;;;;;;13.10;7.10;;;;;;;3.35;100.00;102064.41;7387596;19;20416;-47
2022/03/05 10:43:48;;;;;;;13.93;6.93;;;;;;;3.19;100.00;102059.53;7390724;19;20418;-48
2022/03/05 10:46:17;;;;;;;13.30;6.90;;;;;;;3.31;100.00;102069.97;7388527;19;20461;-48
2022/03/05 10:48:50;;;;;;;11.50;6.37;;;;;;;3.41;100.00;102070.06;7393868;19;20473;-48
2022/03/05 10:51:19;;;;;;;12.73;6.20;;;;;;;3.75;100.00;102064.59;7386872;19;20411;-49
2022/03/05 10:53:50;;;;;;;13.03;6.70;;;;;;;3.96;100.00;102063.06;7390464;19;20415;-49
2022/03/05 10:56:24;;;;;;;10.60;6.50;;;;;;;3.95;100.00;102057.81;7388002;19;20398;-49
2022/03/05 10:59:06;;;;;;;10.60;6.40;;;;;;;3.95;100.00;102047.59;7390241;19;20880;-52
2022/03/05 11:01:36;;;;;;;11.97;6.17;;;;;;;3.95;100.00;102045.94;7386099;19;20430;-49
2022/03/05 11:04:10;;;;;;;11.93;6.77;;;;;;;3.88;100.00;102049.63;7392031;19;20407;-52
2022/03/05 11:06:41;;;;;;;11.53;7.40;;;;;;;3.88;100.00;102044.50;7394726;19;20952;-47
2022/03/05 11:09:12;;;;;;;10.47;6.67;;;;;;;4.00;100.00;102043.81;7397588;19;20402;-51
2022/03/05 11:11:42;;;;;;;12.40;7.10;;;;;;;4.11;100.00;102042.22;7395557;19;20776;-49
2022/03/05 11:14:16;;;;;;;10.73;7.30;;;;;;;4.05;100.00;102043.44;7398507;19;20419;-50
2022/03/05 11:16:46;;;;;;;15.53;7.23;;;;;;;3.99;100.00;102036.91;7391890;19;20418;-48
2022/03/05 11:19:18;;;;;;;12.13;6.83;;;;;;;3.90;100.00;102029.31;7400451;19;20387;-48
2022/03/05 11:21:48;;;;;;;11.63;6.00;;;;;;;3.79;100.00;102030.91;7393043;19;20760;-47
2022/03/05 11:24:20;;;;;;;9.43;6.00;;;;;;;3.81;100.00;102034.50;7397405;19;20427;-47
2022/03/05 11:26:50;;;;;;;11.63;6.53;;;;;;;3.83;100.00;102029.50;7395405;19;20447;-49
2022/03/05 11:29:55;;;;;;;12.33;7.20;;;;;;;3.82;100.00;102038.84;7397506;19;20427;-49
2022/03/05 11:32:25;;;;;;;15.33;7.13;;;;;;;3.80;100.00;102027.63;7394648;19;20426;-49